createdAt,value
2018-11-25T00:00:32.109Z,30.57
2018-11-25T00:03:00.242Z,29.37
2018-11-25T00:05:28.391Z,30.10
2018-11-25T00:07:56.519Z,32.00
2018-11-25T00:10:41.548Z,30.30
2018-11-25T00:13:09.673Z,29.30
2018-11-25T00:15:38.696Z,31.33
2018-11-25T00:18:06.789Z,31.10
2018-11-25T00:20:34.883Z,29.70
2018-11-25T00:23:02.981Z,28.17
2018-11-25T00:25:31.133Z,27.93
2018-11-25T00:27:59.231Z,29.40
2018-11-25T00:30:27.341Z,28.40
2018-11-25T00:32:55.439Z,29.43
2018-11-25T00:35:23.562Z,29.60
2018-11-25T00:37:51.659Z,28.30
2018-11-25T00:40:19.755Z,30.10
2018-11-25T00:42:47.902Z,30.07
2018-11-25T00:45:19.791Z,31.40
2018-11-25T00:47:48.798Z,29.77
2018-11-25T00:50:16.892Z,29.00
2018-11-25T00:52:45.007Z,30.97
2018-11-25T00:55:15.046Z,28.90
2018-11-25T00:57:43.161Z,29.33
2018-11-25T01:00:16.327Z,29.53
2018-11-25T01:02:44.694Z,32.47
2018-11-25T01:05:12.837Z,31.67
2018-11-25T01:07:40.972Z,30.73
2018-11-25T01:10:11.161Z,31.53
2018-11-25T01:12:39.281Z,31.70
2018-11-25T01:15:11.865Z,29.20
2018-11-25T01:17:39.978Z,33.43
2018-11-25T01:20:13.504Z,32.87
2018-11-25T01:22:41.609Z,32.43
2018-11-25T01:25:10.441Z,31.70
2018-11-25T01:27:38.560Z,33.70
2018-11-25T01:30:08.856Z,34.27
2018-11-25T01:32:36.977Z,33.20
2018-11-25T01:35:06.433Z,34.87
2018-11-25T01:37:34.799Z,34.20
2018-11-25T01:40:03.289Z,34.13
2018-11-25T01:42:31.403Z,33.50
2018-11-25T01:44:59.518Z,33.90
2018-11-25T01:47:27.629Z,34.10
2018-11-25T01:49:55.731Z,33.43
2018-11-25T01:52:23.854Z,34.20
2018-11-25T01:54:51.965Z,34.30
2018-11-25T01:57:20.069Z,32.53
2018-11-25T01:59:48.188Z,35.17
2018-11-25T02:02:16.308Z,32.63
2018-11-25T02:04:44.427Z,36.70
2018-11-25T02:07:12.536Z,32.40
2018-11-25T02:09:40.667Z,36.53
2018-11-25T02:12:08.796Z,39.00
2018-11-25T02:14:37.189Z,35.60
2018-11-25T02:17:05.729Z,35.47
2018-11-25T02:19:33.876Z,32.23
2018-11-25T02:22:02.009Z,33.33
2018-11-25T02:24:30.128Z,33.07
2018-11-25T02:26:58.250Z,32.20
2018-11-25T02:29:26.377Z,34.77
2018-11-25T02:31:54.496Z,34.80
2018-11-25T02:34:22.618Z,36.80
2018-11-25T02:36:50.736Z,35.00
2018-11-25T02:39:18.891Z,34.60
2018-11-25T02:41:46.995Z,37.63
2018-11-25T02:44:15.112Z,36.30
2018-11-25T02:46:43.246Z,37.10
2018-11-25T02:49:11.352Z,35.60
2018-11-25T02:51:39.486Z,33.07
2018-11-25T02:54:07.617Z,32.70
2018-11-25T02:56:35.748Z,37.50
2018-11-25T02:59:03.855Z,31.93
2018-11-25T03:01:45.275Z,35.80
2018-11-25T03:04:13.379Z,35.27
2018-11-25T03:06:41.512Z,34.87
2018-11-25T03:09:09.692Z,36.27
2018-11-25T03:11:37.826Z,37.57
2018-11-25T03:14:06.316Z,36.57
2018-11-25T03:16:34.452Z,33.83
2018-11-25T03:19:02.557Z,39.60
2018-11-25T03:21:30.682Z,37.43
2018-11-25T03:23:58.810Z,33.73
2018-11-25T03:26:26.943Z,34.93
2018-11-25T03:28:55.085Z,35.77
2018-11-25T03:31:23.207Z,34.97
2018-11-25T03:33:51.440Z,34.80
2018-11-25T03:36:19.566Z,34.73
2018-11-25T03:38:47.677Z,34.60
2018-11-25T03:41:15.810Z,32.67
2018-11-25T03:43:43.933Z,36.83
2018-11-25T03:46:12.062Z,34.23
2018-11-25T03:48:40.198Z,33.47
2018-11-25T03:51:08.345Z,34.60
2018-11-25T03:53:36.495Z,37.00
2018-11-25T03:56:04.590Z,34.57
2018-11-25T03:58:32.717Z,33.77
2018-11-25T04:01:00.845Z,33.63
2018-11-25T04:03:28.956Z,36.73
2018-11-25T04:05:57.084Z,34.03
2018-11-25T04:08:25.194Z,35.57
2018-11-25T04:10:53.324Z,38.93
2018-11-25T04:13:21.432Z,36.87
2018-11-25T04:15:49.569Z,35.63
2018-11-25T04:18:17.694Z,35.30
2018-11-25T04:20:45.819Z,34.77
2018-11-25T04:23:13.924Z,35.60
2018-11-25T04:25:42.061Z,34.40
2018-11-25T04:28:10.188Z,34.00
2018-11-25T04:30:38.310Z,36.03
2018-11-25T04:33:06.412Z,36.30
2018-11-25T04:35:34.541Z,32.63
2018-11-25T04:38:02.658Z,34.30
2018-11-25T04:40:30.808Z,36.83
2018-11-25T04:42:58.919Z,35.90
2018-11-25T04:45:27.030Z,39.40
2018-11-25T04:47:55.133Z,36.63
2018-11-25T04:50:23.270Z,35.63
2018-11-25T04:52:51.373Z,36.27
2018-11-25T04:55:19.538Z,35.37
2018-11-25T04:57:50.239Z,36.40
2018-11-25T05:00:18.764Z,33.70
2018-11-25T05:02:46.917Z,33.60
2018-11-25T05:05:15.623Z,33.17
2018-11-25T05:07:43.739Z,34.07
2018-11-25T05:10:16.685Z,35.17
2018-11-25T05:12:44.806Z,31.97
2018-11-25T05:15:16.712Z,33.67
2018-11-25T05:17:44.873Z,32.03
2018-11-25T05:20:13.682Z,34.63
2018-11-25T05:22:41.805Z,33.73
2018-11-25T05:25:12.077Z,34.67
2018-11-25T05:27:40.202Z,33.70
2018-11-25T05:30:13.132Z,32.30
2018-11-25T05:32:41.257Z,32.57
2018-11-25T05:35:13.495Z,33.70
2018-11-25T05:37:41.604Z,35.03
2018-11-25T05:40:10.863Z,35.30
2018-11-25T05:42:39.821Z,33.20
2018-11-25T05:45:09.670Z,33.50
2018-11-25T05:47:37.785Z,34.67
2018-11-25T05:50:07.251Z,34.30
2018-11-25T05:52:35.372Z,32.00
2018-11-25T05:55:03.550Z,32.40
2018-11-25T05:57:31.661Z,31.17
2018-11-25T05:59:59.783Z,34.57
2018-11-25T06:02:27.896Z,32.67
2018-11-25T06:04:56.070Z,32.03
2018-11-25T06:07:24.205Z,34.30
2018-11-25T06:09:52.336Z,30.30
2018-11-25T06:12:20.447Z,27.57
2018-11-25T06:14:48.560Z,29.43
2018-11-25T06:17:16.668Z,29.60
2018-11-25T06:19:44.771Z,32.30
2018-11-25T06:22:12.896Z,30.13
2018-11-25T06:24:41.008Z,29.53
2018-11-25T06:27:09.136Z,30.27
2018-11-25T06:29:37.274Z,29.93
2018-11-25T06:32:05.408Z,26.83
2018-11-25T06:34:33.519Z,29.57
2018-11-25T06:37:01.626Z,31.23
2018-11-25T06:39:29.866Z,31.10
2018-11-25T06:41:57.996Z,31.00
2018-11-25T06:44:26.149Z,27.97
2018-11-25T06:46:54.254Z,27.60
2018-11-25T06:49:22.366Z,28.30
2018-11-25T06:51:50.471Z,30.20
2018-11-25T06:54:18.595Z,30.90
2018-11-25T06:56:46.728Z,32.33
2018-11-25T06:59:14.913Z,30.00
2018-11-25T07:01:43.037Z,32.60
2018-11-25T07:04:11.173Z,31.73
2018-11-25T07:06:39.300Z,50.37
2018-11-25T07:09:09.985Z,42.03
2018-11-25T07:11:37.872Z,37.73
2018-11-25T07:14:05.988Z,34.17
2018-11-25T07:16:34.101Z,37.90
2018-11-25T07:19:02.252Z,33.23
2018-11-25T07:21:30.388Z,33.90
2018-11-25T07:23:58.477Z,35.20
2018-11-25T07:26:26.613Z,34.03
2018-11-25T07:28:54.786Z,34.30
2018-11-25T07:31:22.896Z,39.40
2018-11-25T07:33:51.028Z,36.73
2018-11-25T07:36:19.136Z,38.50
2018-11-25T07:38:47.295Z,37.43
2018-11-25T07:41:15.393Z,37.17
2018-11-25T07:43:43.530Z,41.57
2018-11-25T07:46:11.653Z,37.97
2018-11-25T07:48:39.765Z,35.90
2018-11-25T07:51:07.888Z,36.00
2018-11-25T07:53:35.992Z,38.47
2018-11-25T07:56:04.111Z,34.90
2018-11-25T07:58:32.216Z,38.13
2018-11-25T08:01:00.336Z,36.80
2018-11-25T08:03:28.474Z,37.43
2018-11-25T08:05:56.580Z,39.60
2018-11-25T08:08:24.709Z,37.23
2018-11-25T08:10:53.210Z,37.40
2018-11-25T08:13:21.328Z,35.70
2018-11-25T08:15:49.447Z,33.80
2018-11-25T08:18:17.559Z,34.10
2018-11-25T08:20:45.702Z,35.97
2018-11-25T08:23:15.603Z,31.43
2018-11-25T08:25:41.952Z,33.80
2018-11-25T08:28:10.088Z,35.03
2018-11-25T08:30:38.220Z,36.37
2018-11-25T08:33:06.537Z,38.87
2018-11-25T08:35:34.666Z,40.10
2018-11-25T08:38:02.781Z,39.73
2018-11-25T08:40:30.887Z,36.80
2018-11-25T08:42:59.005Z,33.20
2018-11-25T08:45:27.130Z,36.27
2018-11-25T08:47:55.261Z,32.73
2018-11-25T08:50:23.445Z,33.57
2018-11-25T08:52:52.428Z,35.77
2018-11-25T08:55:22.720Z,35.43
2018-11-25T08:57:50.896Z,35.40
2018-11-25T09:00:20.150Z,31.43
2018-11-25T09:02:48.877Z,33.80
2018-11-25T09:05:17.004Z,31.57
2018-11-25T09:07:45.128Z,33.27
2018-11-25T09:10:18.277Z,34.30
2018-11-25T09:12:55.177Z,34.20
2018-11-25T09:15:16.731Z,35.17
2018-11-25T09:17:44.865Z,34.30
2018-11-25T09:20:17.791Z,33.90
2018-11-25T09:22:45.913Z,31.73
2018-11-25T09:25:17.205Z,34.97
2018-11-25T09:27:45.317Z,34.53
2018-11-25T09:30:14.471Z,34.93
2018-11-25T09:32:42.587Z,33.83
2018-11-25T09:35:10.684Z,33.13
2018-11-25T09:37:38.788Z,35.30
2018-11-25T09:40:09.238Z,33.83
2018-11-25T09:42:37.448Z,36.30
2018-11-25T09:45:08.970Z,36.03
2018-11-25T09:47:37.151Z,37.03
2018-11-25T09:50:07.190Z,35.10
2018-11-25T09:52:35.300Z,35.73
2018-11-25T09:55:03.413Z,36.57
2018-11-25T09:57:31.521Z,34.00
2018-11-25T09:59:59.665Z,34.33
2018-11-25T10:02:27.770Z,33.90
2018-11-25T10:04:55.876Z,35.23
2018-11-25T10:07:24.039Z,31.33
2018-11-25T10:09:52.156Z,33.10
2018-11-25T10:12:20.326Z,33.23
2018-11-25T10:14:48.444Z,32.77
2018-11-25T10:17:16.549Z,31.33
2018-11-25T10:19:44.669Z,30.40
2018-11-25T10:22:12.771Z,30.90
2018-11-25T10:24:40.880Z,31.77
2018-11-25T10:27:08.984Z,35.40
2018-11-25T10:29:37.147Z,34.80
2018-11-25T10:32:05.401Z,30.53
2018-11-25T10:34:33.588Z,32.73
2018-11-25T10:37:01.707Z,32.90
2018-11-25T10:39:29.809Z,33.20
2018-11-25T10:41:57.942Z,31.00
2018-11-25T10:44:26.047Z,32.80
2018-11-25T10:46:54.332Z,31.40
2018-11-25T10:49:22.563Z,30.13
2018-11-25T10:51:50.560Z,34.30
2018-11-25T10:54:18.685Z,32.17
2018-11-25T10:56:46.825Z,30.30
2018-11-25T10:59:14.925Z,32.00
2018-11-25T11:01:52.225Z,31.63
2018-11-25T11:04:25.756Z,30.83
2018-11-25T11:06:59.361Z,35.00
2018-11-25T11:09:27.507Z,37.30
2018-11-25T11:11:55.632Z,37.23
2018-11-25T11:14:23.744Z,32.00
2018-11-25T11:16:53.957Z,34.03
2018-11-25T11:19:26.582Z,32.70
2018-11-25T11:21:54.765Z,33.03
2018-11-25T11:24:22.888Z,31.60
2018-11-25T11:26:51.003Z,33.60
2018-11-25T11:29:19.120Z,35.03
2018-11-25T11:31:47.230Z,35.10
2018-11-25T11:34:15.342Z,32.00
2018-11-25T11:36:43.481Z,34.70
2018-11-25T11:39:11.587Z,35.27
2018-11-25T11:41:39.704Z,38.33
2018-11-25T11:44:07.898Z,36.10
2018-11-25T11:46:36.018Z,35.30
2018-11-25T11:49:04.121Z,37.03
2018-11-25T11:51:32.260Z,33.13
2018-11-25T11:54:00.368Z,34.70
2018-11-25T11:56:28.491Z,37.10
2018-11-25T11:58:56.596Z,35.67
2018-11-25T12:01:24.710Z,34.80
2018-11-25T12:03:52.827Z,36.80
2018-11-25T12:06:20.936Z,54.87
2018-11-25T12:08:49.049Z,41.00
2018-11-25T12:11:17.236Z,37.23
2018-11-25T12:13:45.333Z,34.60
2018-11-25T12:16:13.437Z,35.03
2018-11-25T12:18:41.564Z,36.37
2018-11-25T12:21:09.687Z,36.33
2018-11-25T12:23:38.072Z,34.70
2018-11-25T12:26:06.176Z,36.60
2018-11-25T12:28:34.310Z,32.57
2018-11-25T12:31:02.425Z,35.43
2018-11-25T12:33:30.528Z,31.30
2018-11-25T12:35:58.644Z,32.60
2018-11-25T12:38:26.774Z,33.77
2018-11-25T12:40:54.905Z,31.53
2018-11-25T12:43:23.030Z,30.13
2018-11-25T12:45:51.143Z,32.73
2018-11-25T12:48:19.261Z,33.17
2018-11-25T12:50:47.383Z,34.10
2018-11-25T12:53:15.509Z,32.57
2018-11-25T12:55:43.631Z,34.00
2018-11-25T12:58:11.767Z,34.67
2018-11-25T13:00:41.175Z,33.30
2018-11-25T13:03:11.315Z,31.63
2018-11-25T13:05:45.924Z,32.53
2018-11-25T13:08:08.489Z,33.00
2018-11-25T13:10:36.715Z,33.63
2018-11-25T13:13:05.429Z,32.73
2018-11-25T13:15:33.541Z,32.87
2018-11-25T13:18:01.668Z,32.60
2018-11-25T13:20:29.776Z,33.70
2018-11-25T13:22:57.886Z,34.37
2018-11-25T13:25:26.007Z,34.30
2018-11-25T13:27:54.130Z,57.80
2018-11-25T13:30:29.524Z,43.70
2018-11-25T13:32:58.863Z,38.83
2018-11-25T13:35:28.334Z,33.60
2018-11-25T13:37:56.435Z,32.20
2018-11-25T13:40:24.551Z,33.43
2018-11-25T13:42:52.669Z,34.87
2018-11-25T13:45:20.805Z,34.03
2018-11-25T13:47:48.954Z,38.80
2018-11-25T13:50:17.089Z,37.13
2018-11-25T13:52:45.196Z,37.40
2018-11-25T13:55:21.992Z,40.83
2018-11-25T13:57:50.117Z,39.07
2018-11-25T14:00:23.199Z,40.60
2018-11-25T14:02:51.345Z,38.07
2018-11-25T14:05:19.465Z,40.73
2018-11-25T14:07:47.632Z,41.03
2018-11-25T14:10:18.274Z,41.70
2018-11-25T14:12:46.411Z,43.50
2018-11-25T14:15:14.544Z,41.00
2018-11-25T14:17:42.684Z,40.83
2018-11-25T14:20:10.853Z,41.20
2018-11-25T14:22:38.990Z,42.17
2018-11-25T14:25:09.876Z,40.03
2018-11-25T14:27:37.999Z,38.77
2018-11-25T14:30:13.391Z,40.10
2018-11-25T14:32:39.911Z,37.03
2018-11-25T14:35:10.045Z,39.63
2018-11-25T14:37:38.169Z,39.23
2018-11-25T14:40:08.968Z,40.00
2018-11-25T14:42:37.339Z,39.80
2018-11-25T14:45:07.978Z,45.47
2018-11-25T14:47:36.097Z,41.07
2018-11-25T14:50:05.454Z,40.10
2018-11-25T14:52:33.562Z,36.37
2018-11-25T14:55:01.751Z,42.87
2018-11-25T14:57:29.904Z,41.13
2018-11-25T14:59:58.059Z,38.37
2018-11-25T15:02:26.207Z,39.60
2018-11-25T15:04:54.345Z,37.87
2018-11-25T15:07:22.465Z,34.73
2018-11-25T15:09:50.596Z,35.93
2018-11-25T15:12:18.710Z,36.70
2018-11-25T15:14:46.923Z,38.97
2018-11-25T15:17:15.058Z,37.83
2018-11-25T15:19:43.210Z,36.93
2018-11-25T15:22:11.354Z,38.80
2018-11-25T15:24:39.510Z,37.07
2018-11-25T15:27:07.713Z,37.40
2018-11-25T15:29:35.853Z,43.23
2018-11-25T15:32:03.962Z,35.77
2018-11-25T15:34:32.090Z,36.30
2018-11-25T15:37:00.228Z,38.00
2018-11-25T15:39:28.370Z,36.67
2018-11-25T15:41:56.488Z,40.30
2018-11-25T15:44:24.708Z,36.33
2018-11-25T15:46:52.845Z,36.87
2018-11-25T15:49:21.001Z,42.00
2018-11-25T15:51:49.106Z,40.50
2018-11-25T15:54:17.245Z,41.83
2018-11-25T15:56:45.372Z,39.53
2018-11-25T15:59:13.519Z,38.20
2018-11-25T16:01:41.635Z,42.87
2018-11-25T16:04:09.745Z,41.77
2018-11-25T16:06:37.983Z,39.40
2018-11-25T16:09:07.873Z,40.30
2018-11-25T16:11:35.995Z,40.17
2018-11-25T16:14:04.124Z,37.17
2018-11-25T16:16:32.317Z,37.73
2018-11-25T16:19:00.443Z,36.97
2018-11-25T16:21:28.544Z,39.20
2018-11-25T16:23:56.664Z,37.63
2018-11-25T16:26:27.852Z,41.17
2018-11-25T16:28:59.302Z,38.93
2018-11-25T16:31:27.433Z,39.33
2018-11-25T16:33:55.553Z,39.40
2018-11-25T16:36:23.687Z,40.40
2018-11-25T16:38:51.796Z,38.40
2018-11-25T16:41:19.924Z,40.53
2018-11-25T16:43:48.042Z,42.20
2018-11-25T16:46:16.200Z,40.03
2018-11-25T16:48:44.308Z,39.63
2018-11-25T16:51:12.437Z,39.57
2018-11-25T16:53:41.860Z,39.87
2018-11-25T16:56:10.002Z,40.27
2018-11-25T16:58:38.128Z,40.70
2018-11-25T17:01:10.121Z,47.47
2018-11-25T17:03:40.096Z,42.90
2018-11-25T17:06:08.901Z,41.13
2018-11-25T17:08:38.816Z,41.97
2018-11-25T17:11:07.696Z,42.93
2018-11-25T17:13:35.878Z,43.73
2018-11-25T17:16:04.017Z,41.90
2018-11-25T17:18:32.129Z,37.93
2018-11-25T17:21:00.256Z,39.70
2018-11-25T17:23:28.373Z,41.43
2018-11-25T17:25:56.496Z,40.60
2018-11-25T17:28:24.640Z,40.17
2018-11-25T17:30:52.803Z,43.20
2018-11-25T17:33:21.831Z,36.90
2018-11-25T17:35:49.089Z,41.00
2018-11-25T17:38:17.251Z,39.90
2018-11-25T17:40:45.415Z,41.33
2018-11-25T17:43:16.632Z,41.90
2018-11-25T17:45:44.785Z,41.73
2018-11-25T17:48:12.908Z,40.37
2018-11-25T17:50:41.052Z,43.67
2018-11-25T17:53:09.427Z,43.87
2018-11-25T17:55:37.573Z,42.10
2018-11-25T17:58:05.806Z,43.50
2018-11-25T18:00:43.847Z,42.57
2018-11-25T18:03:16.801Z,42.90
2018-11-25T18:05:44.980Z,46.47
2018-11-25T18:08:13.112Z,39.53
2018-11-25T18:10:41.256Z,45.80
2018-11-25T18:13:09.422Z,43.47
2018-11-25T18:15:37.585Z,44.03
2018-11-25T18:18:08.691Z,41.30
2018-11-25T18:20:40.597Z,40.10
2018-11-25T18:23:09.131Z,40.07
2018-11-25T18:25:37.293Z,44.20
2018-11-25T18:28:05.687Z,46.10
2018-11-25T18:30:33.842Z,40.53
2018-11-25T18:33:01.980Z,41.20
2018-11-25T18:35:30.108Z,46.67
2018-11-25T18:37:58.232Z,42.60
2018-11-25T18:40:26.374Z,43.30
2018-11-25T18:42:54.530Z,47.50
2018-11-25T18:45:22.674Z,42.47
2018-11-25T18:47:50.967Z,39.70
2018-11-25T18:50:19.585Z,43.67
2018-11-25T18:52:49.601Z,40.73
2018-11-25T18:55:16.789Z,45.07
2018-11-25T18:57:44.940Z,42.80
2018-11-25T19:00:25.797Z,41.60
2018-11-25T19:02:53.939Z,41.10
2018-11-25T19:05:22.081Z,40.20
2018-11-25T19:07:50.229Z,41.40
2018-11-25T19:10:19.127Z,39.60
2018-11-25T19:12:47.327Z,42.77
2018-11-25T19:15:16.815Z,41.30
2018-11-25T19:17:44.985Z,39.20
2018-11-25T19:20:19.491Z,35.57
2018-11-25T19:22:47.617Z,38.07
2018-11-25T19:25:16.815Z,42.10
2018-11-25T19:27:45.969Z,40.13
2018-11-25T19:30:14.750Z,39.30
2018-11-25T19:32:44.013Z,41.93
2018-11-25T19:35:13.369Z,45.27
2018-11-25T19:37:42.161Z,42.50
2018-11-25T19:40:13.476Z,45.70
2018-11-25T19:42:41.678Z,43.07
2018-11-25T19:45:12.501Z,43.43
2018-11-25T19:47:40.652Z,44.17
2018-11-25T19:50:12.430Z,43.73
2018-11-25T19:52:40.569Z,41.37
2018-11-25T19:55:08.906Z,40.10
2018-11-25T19:57:37.052Z,41.20
2018-11-25T20:00:13.439Z,42.23
2018-11-25T20:02:41.686Z,42.97
2018-11-25T20:05:12.014Z,43.20
2018-11-25T20:07:40.437Z,40.97
2018-11-25T20:10:16.822Z,44.20
2018-11-25T20:12:46.201Z,42.60
2018-11-25T20:15:15.332Z,44.77
2018-11-25T20:17:43.490Z,45.00
2018-11-25T20:20:14.709Z,42.23
2018-11-25T20:22:43.024Z,39.90
2018-11-25T20:25:12.126Z,42.13
2018-11-25T20:27:41.532Z,45.73
2018-11-25T20:30:13.759Z,41.67
2018-11-25T20:32:47.341Z,44.67
2018-11-25T20:35:15.469Z,46.20
2018-11-25T20:37:48.978Z,41.03
2018-11-25T20:40:17.170Z,40.33
2018-11-25T20:42:45.335Z,45.10
2018-11-25T20:45:20.041Z,42.97
2018-11-25T20:47:48.166Z,44.80
2018-11-25T20:50:16.319Z,45.20
2018-11-25T20:52:49.921Z,41.87
2018-11-25T20:55:18.053Z,40.73
2018-11-25T20:57:46.171Z,42.77
2018-11-25T21:00:16.657Z,41.80
2018-11-25T21:02:44.759Z,41.60
2018-11-25T21:05:13.752Z,42.90
2018-11-25T21:07:41.910Z,42.93
2018-11-25T21:10:15.132Z,43.47
2018-11-25T21:12:44.565Z,44.73
2018-11-25T21:15:12.700Z,45.07
2018-11-25T21:17:40.916Z,41.70
2018-11-25T21:20:27.288Z,40.20
2018-11-25T21:22:55.412Z,45.00
2018-11-25T21:25:24.038Z,40.07
2018-11-25T21:27:52.190Z,44.83
2018-11-25T21:30:21.576Z,44.30
2018-11-25T21:32:50.977Z,43.17
2018-11-25T21:35:19.133Z,46.40
2018-11-25T21:37:47.276Z,41.37
2018-11-25T21:40:18.518Z,43.80
2018-11-25T21:42:46.660Z,41.60
2018-11-25T21:45:16.726Z,41.97
2018-11-25T21:47:45.160Z,42.37
2018-11-25T21:50:20.665Z,38.93
2018-11-25T21:52:48.789Z,38.90
2018-11-25T21:55:17.554Z,39.80
2018-11-25T21:57:45.695Z,39.70
2018-11-25T22:00:18.252Z,42.57
2018-11-25T22:02:46.630Z,40.90
2018-11-25T22:05:15.117Z,43.70
2018-11-25T22:07:43.310Z,37.37
2018-11-25T22:10:12.406Z,39.90
2018-11-25T22:12:41.420Z,37.37
2018-11-25T22:15:10.861Z,38.57
2018-11-25T22:17:38.998Z,42.07
2018-11-25T22:20:11.098Z,39.73
2018-11-25T22:22:39.263Z,38.10
2018-11-25T22:25:09.584Z,42.63
2018-11-25T22:27:37.737Z,41.50
2018-11-25T22:30:10.835Z,41.47
2018-11-25T22:32:38.974Z,38.10
2018-11-25T22:35:09.328Z,35.83
2018-11-25T22:37:37.435Z,37.03
2018-11-25T22:40:07.643Z,35.30
2018-11-25T22:42:35.805Z,34.43
2018-11-25T22:45:04.203Z,35.90
2018-11-25T22:47:32.333Z,36.30
2018-11-25T22:50:00.482Z,37.60
2018-11-25T22:52:28.665Z,38.80
2018-11-25T22:54:56.836Z,38.23
2018-11-25T22:57:24.976Z,37.37
2018-11-25T22:59:53.158Z,40.70
2018-11-25T23:02:21.353Z,39.33
2018-11-25T23:05:01.112Z,40.30
2018-11-25T23:07:43.185Z,40.23
2018-11-25T23:10:11.333Z,38.57
2018-11-25T23:12:39.489Z,37.30
2018-11-25T23:15:07.740Z,39.87
2018-11-25T23:17:35.871Z,38.30
2018-11-25T23:20:04.304Z,40.30
2018-11-25T23:22:32.432Z,39.87
2018-11-25T23:25:00.586Z,39.07
2018-11-25T23:27:28.703Z,39.30
2018-11-25T23:29:56.883Z,40.00
2018-11-25T23:32:25.043Z,42.50
2018-11-25T23:34:53.496Z,43.03
2018-11-25T23:37:21.643Z,41.67
2018-11-25T23:39:49.787Z,44.10
2018-11-25T23:42:17.950Z,39.73
2018-11-25T23:44:46.108Z,40.97
2018-11-25T23:47:14.312Z,41.87
2018-11-25T23:49:42.469Z,43.50
2018-11-25T23:52:10.634Z,40.30
2018-11-25T23:54:38.757Z,40.30
2018-11-25T23:57:07.070Z,36.33
2018-11-25T23:59:35.225Z,40.27
